South Milwaukee, WI (53172)

8:26 AM CDT on March 26, 2017 (GMT -0500)
South Milwaukee | | Change Station

Elev 659 ft 42.90 °N, 87.86 °W | Updated 53 seconds ago

Rain
Rain
40.6 °F
Feels Like 41 °F
N
0.0
Wind Variable Wind from NNW
Gusts 2.5 mph

Today
High -- | Low -- °F
--% Chance of Precip.
Yesterday
High -- | Low -- °F
Precip. -- in
Pressure 29.90 in
Visibility 0.2 miles
Clouds Overcast 200 ft
Windchill 41 °F
Dew Point 40 °F
Humidity 96%
Rainfall 0.16 in
Snow Depth Not available.
6:43 AM 7:11 PM
Waning Crescent, 3% visible
SPECI KMKE 261301Z 03009KT 1/4SM RA BR OVC002 04/03 A2990 RMK AO2 SFC VIS 1 1/2 P0002 T00440033
Pressure 29.90 in
Visibility 0.2 miles
Clouds Overcast 200 ft
Windchill 41 °F
Dew Point 40 °F
Humidity 96%
Rainfall 0.16 in
Snow Depth Not available.
6:43 AM 7:11 PM
Waning Crescent, 3% visible
SPECI KMKE 261301Z 03009KT 1/4SM RA BR OVC002 04/03 A2990 RMK AO2 SFC VIS 1 1/2 P0002 T00440033

Get Severe Weather Alerts

Thanks for signing up!

Be on the lookout for a verification email in your inbox.

You'll start receiving the daily forecast at 8 AM.

×

10-Day Weather Forecast

Almanac

Astronomy

Mar. 26, 2017 Rise Set
Actual Time
Civil Twilight
Nautical Twilight
Astronomical Twilight
Moon
Length of Visible Light
Length of Day
Tomorrow will be .
, % of the Moon is Illuminated

Today's Extremes

State Highs State Lows

Community

WunderPhotos

Upload Photos

1,962,540 photos uploaded!

WunderBlog® & News

Nearby

Air Quality

  Air Quality AQ Index Pollutant
Not available.

Snow Depth

Station Depth Elevation

Earthquake Activity

City Distance Mag. Time & Date
Minimum magnitude displayed is 2.5.

Earthquake Activity

City Distance Mag. Time & Date
Minimum magnitude displayed is 2.5.

Coastal Water Temperatures

Place Temperature

Stations

Nearby Weather Stations

Station Location Temp. Windchill Dew Point Humidity Wind Precip. Elev Updated Type
                   

Watches & Warnings

There are currently no watches in effect.